sensor_id;sensor_type;location;lat;lon;timestamp;P1;durP1;ratioP1;P2;durP2;ratioP2
14268;SDS011;7218;51.480;7.006;2022-10-26T00:00:27;5.82;;;3.38;;
14268;SDS011;7218;51.480;7.006;2022-10-26T00:02:54;6.57;;;3.05;;
14268;SDS011;7218;51.480;7.006;2022-10-26T00:05:21;6.10;;;3.22;;
14268;SDS011;7218;51.480;7.006;2022-10-26T00:07:48;4.38;;;2.92;;
14268;SDS011;7218;51.480;7.006;2022-10-26T00:10:15;7.70;;;3.03;;
14268;SDS011;7218;51.480;7.006;2022-10-26T00:12:47;6.60;;;3.10;;
14268;SDS011;7218;51.480;7.006;2022-10-26T00:15:14;7.75;;;3.13;;
14268;SDS011;7218;51.480;7.006;2022-10-26T00:17:42;8.23;;;3.40;;
14268;SDS011;7218;51.480;7.006;2022-10-26T00:20:08;6.68;;;3.25;;
14268;SDS011;7218;51.480;7.006;2022-10-26T00:22:35;4.63;;;2.88;;
14268;SDS011;7218;51.480;7.006;2022-10-26T00:25:02;9.45;;;3.55;;
14268;SDS011;7218;51.480;7.006;2022-10-26T00:27:29;5.78;;;3.30;;
14268;SDS011;7218;51.480;7.006;2022-10-26T00:29:56;5.22;;;2.90;;
14268;SDS011;7218;51.480;7.006;2022-10-26T00:32:22;5.72;;;3.13;;
14268;SDS011;7218;51.480;7.006;2022-10-26T00:34:50;6.40;;;3.30;;
14268;SDS011;7218;51.480;7.006;2022-10-26T00:37:17;6.03;;;3.22;;
14268;SDS011;7218;51.480;7.006;2022-10-26T00:39:43;5.45;;;3.40;;
14268;SDS011;7218;51.480;7.006;2022-10-26T00:42:11;6.20;;;3.67;;
14268;SDS011;7218;51.480;7.006;2022-10-26T00:47:37;7.32;;;3.53;;
14268;SDS011;7218;51.480;7.006;2022-10-26T00:50:09;7.53;;;3.35;;
14268;SDS011;7218;51.480;7.006;2022-10-26T00:52:40;6.75;;;3.20;;
14268;SDS011;7218;51.480;7.006;2022-10-26T00:55:07;5.78;;;3.05;;
14268;SDS011;7218;51.480;7.006;2022-10-26T00:57:34;6.32;;;3.20;;
14268;SDS011;7218;51.480;7.006;2022-10-26T01:00:03;6.57;;;3.35;;
14268;SDS011;7218;51.480;7.006;2022-10-26T01:02:31;7.32;;;3.10;;
14268;SDS011;7218;51.480;7.006;2022-10-26T01:04:58;11.82;;;3.58;;
14268;SDS011;7218;51.480;7.006;2022-10-26T01:07:25;7.18;;;3.40;;
14268;SDS011;7218;51.480;7.006;2022-10-26T01:09:52;5.85;;;3.20;;
14268;SDS011;7218;51.480;7.006;2022-10-26T01:12:20;6.35;;;3.20;;
14268;SDS011;7218;51.480;7.006;2022-10-26T01:14:46;8.10;;;3.50;;
14268;SDS011;7218;51.480;7.006;2022-10-26T01:17:17;8.05;;;3.88;;
14268;SDS011;7218;51.480;7.006;2022-10-26T01:22:58;6.22;;;3.40;;
14268;SDS011;7218;51.480;7.006;2022-10-26T01:28:38;10.50;;;3.50;;
14268;SDS011;7218;51.480;7.006;2022-10-26T01:31:27;6.72;;;3.60;;
14268;SDS011;7218;51.480;7.006;2022-10-26T01:33:59;7.65;;;3.22;;
14268;SDS011;7218;51.480;7.006;2022-10-26T01:36:30;4.93;;;3.13;;
14268;SDS011;7218;51.480;7.006;2022-10-26T01:39:00;7.97;;;3.25;;
14268;SDS011;7218;51.480;7.006;2022-10-26T01:41:34;7.85;;;3.20;;
14268;SDS011;7218;51.480;7.006;2022-10-26T01:44:06;5.57;;;2.92;;
14268;SDS011;7218;51.480;7.006;2022-10-26T01:46:39;6.80;;;3.55;;
14268;SDS011;7218;51.480;7.006;2022-10-26T01:49:09;10.65;;;3.60;;
14268;SDS011;7218;51.480;7.006;2022-10-26T01:51:38;8.95;;;3.42;;
14268;SDS011;7218;51.480;7.006;2022-10-26T01:54:07;5.13;;;3.15;;
14268;SDS011;7218;51.480;7.006;2022-10-26T01:56:34;8.63;;;3.38;;
14268;SDS011;7218;51.480;7.006;2022-10-26T02:05:15;7.05;;;3.28;;
14268;SDS011;7218;51.480;7.006;2022-10-26T02:07:54;8.25;;;3.45;;
14268;SDS011;7218;51.480;7.006;2022-10-26T02:10:29;9.25;;;3.08;;
14268;SDS011;7218;51.480;7.006;2022-10-26T02:13:09;7.10;;;3.22;;
14268;SDS011;7218;51.480;7.006;2022-10-26T02:15:43;7.05;;;3.25;;
14268;SDS011;7218;51.480;7.006;2022-10-26T02:18:17;8.57;;;3.10;;
14268;SDS011;7218;51.480;7.006;2022-10-26T02:20:52;5.78;;;3.30;;
14268;SDS011;7218;51.480;7.006;2022-10-26T02:23:22;7.93;;;3.60;;
14268;SDS011;7218;51.480;7.006;2022-10-26T02:25:53;8.05;;;3.60;;
14268;SDS011;7218;51.480;7.006;2022-10-26T02:28:24;8.25;;;3.40;;
14268;SDS011;7218;51.480;7.006;2022-10-26T02:30:56;5.47;;;2.90;;
14268;SDS011;7218;51.480;7.006;2022-10-26T02:33:27;6.32;;;3.20;;
14268;SDS011;7218;51.480;7.006;2022-10-26T02:35:57;10.80;;;3.53;;
14268;SDS011;7218;51.480;7.006;2022-10-26T02:38:25;5.85;;;3.05;;
14268;SDS011;7218;51.480;7.006;2022-10-26T02:40:55;6.45;;;2.97;;
14268;SDS011;7218;51.480;7.006;2022-10-26T02:43:24;8.77;;;3.53;;
14268;SDS011;7218;51.480;7.006;2022-10-26T02:45:53;9.75;;;3.65;;
14268;SDS011;7218;51.480;7.006;2022-10-26T02:48:24;7.72;;;3.35;;
14268;SDS011;7218;51.480;7.006;2022-10-26T02:50:56;6.88;;;3.28;;
14268;SDS011;7218;51.480;7.006;2022-10-26T02:53:26;7.30;;;3.42;;
14268;SDS011;7218;51.480;7.006;2022-10-26T02:55:58;5.80;;;3.10;;
14268;SDS011;7218;51.480;7.006;2022-10-26T02:58:28;8.27;;;3.42;;
14268;SDS011;7218;51.480;7.006;2022-10-26T03:00:58;6.05;;;3.45;;
14268;SDS011;7218;51.480;7.006;2022-10-26T03:03:25;4.60;;;3.17;;
14268;SDS011;7218;51.480;7.006;2022-10-26T03:05:51;4.65;;;3.13;;
14268;SDS011;7218;51.480;7.006;2022-10-26T03:08:19;8.43;;;3.53;;
14268;SDS011;7218;51.480;7.006;2022-10-26T03:10:46;5.13;;;3.35;;
14268;SDS011;7218;51.480;7.006;2022-10-26T03:13:12;7.47;;;3.83;;
14268;SDS011;7218;51.480;7.006;2022-10-26T03:15:39;6.18;;;3.47;;
14268;SDS011;7218;51.480;7.006;2022-10-26T03:18:06;7.68;;;3.80;;
14268;SDS011;7218;51.480;7.006;2022-10-26T03:20:33;7.10;;;3.47;;
14268;SDS011;7218;51.480;7.006;2022-10-26T03:22:59;7.97;;;3.58;;
14268;SDS011;7218;51.480;7.006;2022-10-26T03:25:27;7.82;;;3.80;;
14268;SDS011;7218;51.480;7.006;2022-10-26T03:27:57;7.75;;;3.85;;
14268;SDS011;7218;51.480;7.006;2022-10-26T03:30:24;4.28;;;3.28;;
14268;SDS011;7218;51.480;7.006;2022-10-26T03:32:51;6.95;;;3.70;;
14268;SDS011;7218;51.480;7.006;2022-10-26T03:35:18;5.63;;;3.13;;
14268;SDS011;7218;51.480;7.006;2022-10-26T03:37:44;8.02;;;3.80;;
14268;SDS011;7218;51.480;7.006;2022-10-26T03:40:11;6.38;;;3.42;;
14268;SDS011;7218;51.480;7.006;2022-10-26T03:42:39;9.93;;;3.58;;
14268;SDS011;7218;51.480;7.006;2022-10-26T03:45:06;6.65;;;3.13;;
14268;SDS011;7218;51.480;7.006;2022-10-26T03:47:33;9.77;;;3.55;;
14268;SDS011;7218;51.480;7.006;2022-10-26T03:50:00;5.38;;;3.30;;
14268;SDS011;7218;51.480;7.006;2022-10-26T03:52:26;7.43;;;3.60;;
14268;SDS011;7218;51.480;7.006;2022-10-26T03:54:53;6.10;;;3.58;;
14268;SDS011;7218;51.480;7.006;2022-10-26T03:57:19;7.70;;;3.55;;
14268;SDS011;7218;51.480;7.006;2022-10-26T03:59:47;7.00;;;3.58;;
14268;SDS011;7218;51.480;7.006;2022-10-26T04:02:13;8.32;;;3.50;;
14268;SDS011;7218;51.480;7.006;2022-10-26T04:04:40;8.48;;;4.30;;
14268;SDS011;7218;51.480;7.006;2022-10-26T04:07:06;6.93;;;3.97;;
14268;SDS011;7218;51.480;7.006;2022-10-26T04:09:32;5.50;;;3.38;;
14268;SDS011;7218;51.480;7.006;2022-10-26T04:11:59;9.90;;;3.90;;
14268;SDS011;7218;51.480;7.006;2022-10-26T04:14:25;6.45;;;3.75;;
14268;SDS011;7218;51.480;7.006;2022-10-26T04:16:53;9.30;;;4.03;;
14268;SDS011;7218;51.480;7.006;2022-10-26T04:19:19;6.03;;;3.65;;
14268;SDS011;7218;51.480;7.006;2022-10-26T04:21:46;6.18;;;3.50;;
14268;SDS011;7218;51.480;7.006;2022-10-26T04:24:12;11.43;;;3.70;;
14268;SDS011;7218;51.480;7.006;2022-10-26T04:26:40;6.80;;;3.33;;
14268;SDS011;7218;51.480;7.006;2022-10-26T04:29:06;8.40;;;3.55;;
14268;SDS011;7218;51.480;7.006;2022-10-26T04:31:33;7.65;;;3.35;;
14268;SDS011;7218;51.480;7.006;2022-10-26T04:34:01;6.93;;;3.70;;
14268;SDS011;7218;51.480;7.006;2022-10-26T04:36:28;6.18;;;3.50;;
14268;SDS011;7218;51.480;7.006;2022-10-26T04:38:55;8.15;;;3.60;;
14268;SDS011;7218;51.480;7.006;2022-10-26T04:41:22;9.65;;;3.97;;
14268;SDS011;7218;51.480;7.006;2022-10-26T04:43:48;6.97;;;3.67;;
14268;SDS011;7218;51.480;7.006;2022-10-26T04:46:14;7.90;;;3.70;;
14268;SDS011;7218;51.480;7.006;2022-10-26T04:48:41;10.10;;;4.05;;
14268;SDS011;7218;51.480;7.006;2022-10-26T04:51:09;7.25;;;3.75;;
14268;SDS011;7218;51.480;7.006;2022-10-26T04:53:35;10.23;;;3.70;;
14268;SDS011;7218;51.480;7.006;2022-10-26T04:56:02;9.23;;;4.43;;
14268;SDS011;7218;51.480;7.006;2022-10-26T04:58:28;6.07;;;2.63;;
14268;SDS011;7218;51.480;7.006;2022-10-26T05:00:55;10.32;;;2.60;;
14268;SDS011;7218;51.480;7.006;2022-10-26T05:03:22;4.97;;;2.42;;
14268;SDS011;7218;51.480;7.006;2022-10-26T05:05:48;5.35;;;1.95;;
14268;SDS011;7218;51.480;7.006;2022-10-26T05:08:16;4.38;;;1.92;;
14268;SDS011;7218;51.480;7.006;2022-10-26T05:10:46;4.15;;;1.42;;
14268;SDS011;7218;51.480;7.006;2022-10-26T05:13:13;4.57;;;1.50;;
14268;SDS011;7218;51.480;7.006;2022-10-26T05:15:39;4.18;;;1.50;;
14268;SDS011;7218;51.480;7.006;2022-10-26T05:18:06;2.28;;;1.33;;
14268;SDS011;7218;51.480;7.006;2022-10-26T05:20:33;3.25;;;1.65;;
14268;SDS011;7218;51.480;7.006;2022-10-26T05:23:01;3.97;;;1.20;;
14268;SDS011;7218;51.480;7.006;2022-10-26T05:25:30;4.07;;;1.58;;
14268;SDS011;7218;51.480;7.006;2022-10-26T05:27:59;4.80;;;1.67;;
14268;SDS011;7218;51.480;7.006;2022-10-26T05:30:27;4.63;;;1.40;;
14268;SDS011;7218;51.480;7.006;2022-10-26T05:32:54;4.65;;;1.33;;
14268;SDS011;7218;51.480;7.006;2022-10-26T05:35:21;3.80;;;1.50;;
14268;SDS011;7218;51.480;7.006;2022-10-26T05:37:48;5.30;;;1.70;;
14268;SDS011;7218;51.480;7.006;2022-10-26T05:40:14;3.53;;;1.63;;
14268;SDS011;7218;51.480;7.006;2022-10-26T05:42:43;2.85;;;1.33;;
14268;SDS011;7218;51.480;7.006;2022-10-26T05:45:09;4.10;;;1.42;;
14268;SDS011;7218;51.480;7.006;2022-10-26T05:47:36;2.72;;;1.10;;
14268;SDS011;7218;51.480;7.006;2022-10-26T05:50:03;3.15;;;1.30;;
14268;SDS011;7218;51.480;7.006;2022-10-26T05:52:32;2.47;;;1.33;;
14268;SDS011;7218;51.480;7.006;2022-10-26T05:55:04;1.58;;;0.98;;
14268;SDS011;7218;51.480;7.006;2022-10-26T05:57:31;2.70;;;1.30;;
14268;SDS011;7218;51.480;7.006;2022-10-26T06:00:00;2.47;;;1.20;;
14268;SDS011;7218;51.480;7.006;2022-10-26T06:02:29;4.78;;;1.50;;
14268;SDS011;7218;51.480;7.006;2022-10-26T06:05:03;2.25;;;1.20;;
14268;SDS011;7218;51.480;7.006;2022-10-26T06:07:30;1.80;;;1.10;;
14268;SDS011;7218;51.480;7.006;2022-10-26T06:09:58;6.43;;;1.83;;
14268;SDS011;7218;51.480;7.006;2022-10-26T06:12:25;3.28;;;1.30;;
14268;SDS011;7218;51.480;7.006;2022-10-26T06:14:52;3.25;;;1.25;;
14268;SDS011;7218;51.480;7.006;2022-10-26T06:17:24;2.30;;;1.23;;
14268;SDS011;7218;51.480;7.006;2022-10-26T06:20:14;2.65;;;1.15;;
14268;SDS011;7218;51.480;7.006;2022-10-26T06:23:15;2.30;;;1.10;;
14268;SDS011;7218;51.480;7.006;2022-10-26T06:25:58;3.65;;;1.42;;
14268;SDS011;7218;51.480;7.006;2022-10-26T06:28:33;3.30;;;1.25;;
14268;SDS011;7218;51.480;7.006;2022-10-26T06:31:08;1.98;;;1.30;;
14268;SDS011;7218;51.480;7.006;2022-10-26T06:33:36;3.03;;;1.58;;
14268;SDS011;7218;51.480;7.006;2022-10-26T06:36:06;1.95;;;1.15;;
14268;SDS011;7218;51.480;7.006;2022-10-26T06:38:41;1.73;;;1.05;;
14268;SDS011;7218;51.480;7.006;2022-10-26T06:41:09;2.22;;;1.15;;
14268;SDS011;7218;51.480;7.006;2022-10-26T06:43:39;2.35;;;1.23;;
14268;SDS011;7218;51.480;7.006;2022-10-26T06:46:07;2.38;;;1.00;;
14268;SDS011;7218;51.480;7.006;2022-10-26T06:48:50;3.97;;;0.95;;
14268;SDS011;7218;51.480;7.006;2022-10-26T06:51:21;1.88;;;1.10;;
14268;SDS011;7218;51.480;7.006;2022-10-26T06:53:51;2.28;;;1.20;;
14268;SDS011;7218;51.480;7.006;2022-10-26T06:56:22;3.13;;;1.20;;
14268;SDS011;7218;51.480;7.006;2022-10-26T06:58:51;2.03;;;1.00;;
14268;SDS011;7218;51.480;7.006;2022-10-26T07:01:21;2.22;;;1.10;;
14268;SDS011;7218;51.480;7.006;2022-10-26T07:03:47;2.70;;;1.10;;
14268;SDS011;7218;51.480;7.006;2022-10-26T07:06:15;2.72;;;0.90;;
14268;SDS011;7218;51.480;7.006;2022-10-26T07:08:41;1.88;;;1.20;;
14268;SDS011;7218;51.480;7.006;2022-10-26T07:11:08;2.75;;;1.10;;
14268;SDS011;7218;51.480;7.006;2022-10-26T07:13:34;1.85;;;1.00;;
14268;SDS011;7218;51.480;7.006;2022-10-26T07:16:01;1.83;;;0.90;;
14268;SDS011;7218;51.480;7.006;2022-10-26T07:18:27;1.75;;;0.85;;
14268;SDS011;7218;51.480;7.006;2022-10-26T07:20:54;5.82;;;1.17;;
14268;SDS011;7218;51.480;7.006;2022-10-26T07:23:22;2.67;;;1.23;;
14268;SDS011;7218;51.480;7.006;2022-10-26T07:25:48;2.65;;;1.13;;
14268;SDS011;7218;51.480;7.006;2022-10-26T07:28:15;2.20;;;0.88;;
14268;SDS011;7218;51.480;7.006;2022-10-26T07:30:41;2.38;;;1.25;;
14268;SDS011;7218;51.480;7.006;2022-10-26T07:33:08;3.97;;;1.15;;
14268;SDS011;7218;51.480;7.006;2022-10-26T07:35:36;3.20;;;1.20;;
14268;SDS011;7218;51.480;7.006;2022-10-26T07:38:03;3.70;;;1.27;;
14268;SDS011;7218;51.480;7.006;2022-10-26T07:40:31;2.35;;;1.00;;
14268;SDS011;7218;51.480;7.006;2022-10-26T07:42:58;1.65;;;1.20;;
14268;SDS011;7218;51.480;7.006;2022-10-26T07:45:25;1.73;;;1.00;;
14268;SDS011;7218;51.480;7.006;2022-10-26T07:47:53;1.85;;;1.05;;
14268;SDS011;7218;51.480;7.006;2022-10-26T07:50:20;2.35;;;1.40;;
14268;SDS011;7218;51.480;7.006;2022-10-26T07:52:46;3.67;;;0.90;;
14268;SDS011;7218;51.480;7.006;2022-10-26T07:55:13;2.25;;;1.20;;
14268;SDS011;7218;51.480;7.006;2022-10-26T07:57:41;1.67;;;1.02;;
14268;SDS011;7218;51.480;7.006;2022-10-26T08:00:08;4.90;;;1.45;;
14268;SDS011;7218;51.480;7.006;2022-10-26T08:02:35;2.95;;;1.50;;
14268;SDS011;7218;51.480;7.006;2022-10-26T08:05:02;2.58;;;1.10;;
14268;SDS011;7218;51.480;7.006;2022-10-26T08:07:29;5.13;;;1.40;;
14268;SDS011;7218;51.480;7.006;2022-10-26T08:09:55;3.85;;;1.15;;
14268;SDS011;7218;51.480;7.006;2022-10-26T08:12:22;2.42;;;1.20;;
14268;SDS011;7218;51.480;7.006;2022-10-26T08:14:49;3.40;;;1.30;;
14268;SDS011;7218;51.480;7.006;2022-10-26T08:17:16;4.05;;;1.20;;
14268;SDS011;7218;51.480;7.006;2022-10-26T08:19:46;3.75;;;1.17;;
14268;SDS011;7218;51.480;7.006;2022-10-26T08:22:12;2.80;;;1.42;;
14268;SDS011;7218;51.480;7.006;2022-10-26T08:24:39;2.90;;;1.40;;
14268;SDS011;7218;51.480;7.006;2022-10-26T08:27:06;4.47;;;1.25;;
14268;SDS011;7218;51.480;7.006;2022-10-26T08:29:33;2.75;;;1.35;;
14268;SDS011;7218;51.480;7.006;2022-10-26T08:32:01;5.32;;;1.40;;
14268;SDS011;7218;51.480;7.006;2022-10-26T08:34:27;3.25;;;1.27;;
14268;SDS011;7218;51.480;7.006;2022-10-26T08:36:54;2.45;;;1.27;;
14268;SDS011;7218;51.480;7.006;2022-10-26T08:39:20;2.05;;;1.30;;
14268;SDS011;7218;51.480;7.006;2022-10-26T08:41:47;4.18;;;1.55;;
14268;SDS011;7218;51.480;7.006;2022-10-26T08:44:20;4.28;;;1.42;;
14268;SDS011;7218;51.480;7.006;2022-10-26T08:46:52;3.58;;;1.50;;
14268;SDS011;7218;51.480;7.006;2022-10-26T08:49:25;2.20;;;1.17;;
14268;SDS011;7218;51.480;7.006;2022-10-26T08:51:57;3.03;;;1.50;;
14268;SDS011;7218;51.480;7.006;2022-10-26T08:54:29;4.57;;;1.55;;
14268;SDS011;7218;51.480;7.006;2022-10-26T08:57:03;5.47;;;1.80;;
14268;SDS011;7218;51.480;7.006;2022-10-26T08:59:39;5.63;;;1.30;;
14268;SDS011;7218;51.480;7.006;2022-10-26T09:02:11;5.80;;;1.77;;
14268;SDS011;7218;51.480;7.006;2022-10-26T09:04:40;3.63;;;1.58;;
14268;SDS011;7218;51.480;7.006;2022-10-26T09:07:09;5.75;;;1.40;;
14268;SDS011;7218;51.480;7.006;2022-10-26T09:09:45;4.28;;;1.52;;
14268;SDS011;7218;51.480;7.006;2022-10-26T09:12:22;2.67;;;1.30;;
14268;SDS011;7218;51.480;7.006;2022-10-26T09:14:59;2.85;;;1.67;;
14268;SDS011;7218;51.480;7.006;2022-10-26T09:17:38;4.65;;;1.30;;
14268;SDS011;7218;51.480;7.006;2022-10-26T09:20:23;3.95;;;1.55;;
14268;SDS011;7218;51.480;7.006;2022-10-26T09:23:05;4.22;;;1.35;;
14268;SDS011;7218;51.480;7.006;2022-10-26T09:25:43;4.63;;;1.55;;
14268;SDS011;7218;51.480;7.006;2022-10-26T09:28:15;3.47;;;1.40;;
14268;SDS011;7218;51.480;7.006;2022-10-26T09:30:43;6.28;;;1.60;;
14268;SDS011;7218;51.480;7.006;2022-10-26T09:33:13;3.75;;;1.70;;
14268;SDS011;7218;51.480;7.006;2022-10-26T09:35:43;5.53;;;1.52;;
14268;SDS011;7218;51.480;7.006;2022-10-26T09:38:16;5.25;;;1.50;;
14268;SDS011;7218;51.480;7.006;2022-10-26T09:40:49;2.60;;;1.33;;
14268;SDS011;7218;51.480;7.006;2022-10-26T09:43:23;2.15;;;1.58;;
14268;SDS011;7218;51.480;7.006;2022-10-26T09:45:53;3.58;;;1.98;;
14268;SDS011;7218;51.480;7.006;2022-10-26T09:48:21;3.17;;;1.50;;
14268;SDS011;7218;51.480;7.006;2022-10-26T09:50:54;3.90;;;1.60;;
14268;SDS011;7218;51.480;7.006;2022-10-26T09:53:23;4.68;;;1.85;;
14268;SDS011;7218;51.480;7.006;2022-10-26T09:55:50;3.75;;;1.73;;
14268;SDS011;7218;51.480;7.006;2022-10-26T09:58:26;3.22;;;1.45;;
14268;SDS011;7218;51.480;7.006;2022-10-26T10:00:55;4.85;;;1.70;;
14268;SDS011;7218;51.480;7.006;2022-10-26T10:03:23;4.47;;;1.60;;
14268;SDS011;7218;51.480;7.006;2022-10-26T10:05:52;5.15;;;1.60;;
14268;SDS011;7218;51.480;7.006;2022-10-26T10:08:21;3.85;;;1.70;;
14268;SDS011;7218;51.480;7.006;2022-10-26T10:10:52;3.28;;;1.80;;
14268;SDS011;7218;51.480;7.006;2022-10-26T10:13:20;5.10;;;1.63;;
14268;SDS011;7218;51.480;7.006;2022-10-26T10:15:51;4.22;;;1.60;;
14268;SDS011;7218;51.480;7.006;2022-10-26T10:18:19;3.20;;;1.88;;
14268;SDS011;7218;51.480;7.006;2022-10-26T10:20:51;6.10;;;1.70;;
14268;SDS011;7218;51.480;7.006;2022-10-26T10:23:28;4.03;;;1.75;;
14268;SDS011;7218;51.480;7.006;2022-10-26T10:25:57;4.68;;;1.77;;
14268;SDS011;7218;51.480;7.006;2022-10-26T10:28:26;3.60;;;1.70;;
14268;SDS011;7218;51.480;7.006;2022-10-26T10:30:53;4.28;;;1.80;;
14268;SDS011;7218;51.480;7.006;2022-10-26T10:33:26;6.30;;;1.88;;
14268;SDS011;7218;51.480;7.006;2022-10-26T10:35:58;3.55;;;1.70;;
14268;SDS011;7218;51.480;7.006;2022-10-26T10:38:25;5.32;;;1.80;;
14268;SDS011;7218;51.480;7.006;2022-10-26T10:40:54;2.47;;;1.80;;
14268;SDS011;7218;51.480;7.006;2022-10-26T10:43:23;7.28;;;2.20;;
14268;SDS011;7218;51.480;7.006;2022-10-26T10:45:52;2.92;;;1.80;;
14268;SDS011;7218;51.480;7.006;2022-10-26T10:48:21;3.88;;;1.65;;
14268;SDS011;7218;51.480;7.006;2022-10-26T10:50:51;5.43;;;1.92;;
14268;SDS011;7218;51.480;7.006;2022-10-26T10:53:21;5.72;;;1.98;;
14268;SDS011;7218;51.480;7.006;2022-10-26T10:56:04;4.30;;;1.83;;
14268;SDS011;7218;51.480;7.006;2022-10-26T10:58:43;5.32;;;1.83;;
14268;SDS011;7218;51.480;7.006;2022-10-26T11:01:18;5.10;;;2.25;;
14268;SDS011;7218;51.480;7.006;2022-10-26T11:03:51;3.80;;;1.88;;
14268;SDS011;7218;51.480;7.006;2022-10-26T11:06:29;4.68;;;1.75;;
14268;SDS011;7218;51.480;7.006;2022-10-26T11:09:02;4.93;;;2.20;;
14268;SDS011;7218;51.480;7.006;2022-10-26T11:11:35;5.63;;;2.15;;
14268;SDS011;7218;51.480;7.006;2022-10-26T11:14:08;5.25;;;2.17;;
14268;SDS011;7218;51.480;7.006;2022-10-26T11:16:39;5.00;;;2.08;;
14268;SDS011;7218;51.480;7.006;2022-10-26T11:19:14;6.47;;;2.28;;
14268;SDS011;7218;51.480;7.006;2022-10-26T11:21:45;5.45;;;2.03;;
14268;SDS011;7218;51.480;7.006;2022-10-26T11:24:17;5.75;;;2.08;;
14268;SDS011;7218;51.480;7.006;2022-10-26T11:26:49;6.70;;;2.10;;
14268;SDS011;7218;51.480;7.006;2022-10-26T11:29:24;4.78;;;2.33;;
14268;SDS011;7218;51.480;7.006;2022-10-26T11:31:57;5.93;;;2.20;;
14268;SDS011;7218;51.480;7.006;2022-10-26T11:34:30;4.35;;;2.10;;
14268;SDS011;7218;51.480;7.006;2022-10-26T11:37:02;7.60;;;2.30;;
14268;SDS011;7218;51.480;7.006;2022-10-26T11:39:35;6.18;;;2.22;;
14268;SDS011;7218;51.480;7.006;2022-10-26T11:42:10;5.50;;;2.20;;
14268;SDS011;7218;51.480;7.006;2022-10-26T11:44:46;4.13;;;2.10;;
14268;SDS011;7218;51.480;7.006;2022-10-26T11:47:18;4.93;;;2.10;;
14268;SDS011;7218;51.480;7.006;2022-10-26T11:49:50;9.07;;;2.42;;
14268;SDS011;7218;51.480;7.006;2022-10-26T11:52:23;8.75;;;2.67;;
14268;SDS011;7218;51.480;7.006;2022-10-26T11:54:53;6.35;;;2.50;;
14268;SDS011;7218;51.480;7.006;2022-10-26T11:57:25;3.95;;;2.00;;
14268;SDS011;7218;51.480;7.006;2022-10-26T11:59:55;4.35;;;1.70;;
14268;SDS011;7218;51.480;7.006;2022-10-26T12:02:26;4.13;;;1.92;;
14268;SDS011;7218;51.480;7.006;2022-10-26T12:04:53;6.25;;;2.30;;
14268;SDS011;7218;51.480;7.006;2022-10-26T12:07:28;3.67;;;1.63;;
14268;SDS011;7218;51.480;7.006;2022-10-26T12:09:57;4.22;;;2.15;;
14268;SDS011;7218;51.480;7.006;2022-10-26T12:12:27;3.35;;;1.80;;
14268;SDS011;7218;51.480;7.006;2022-10-26T12:15:02;6.00;;;1.92;;
14268;SDS011;7218;51.480;7.006;2022-10-26T12:17:42;5.20;;;2.00;;
14268;SDS011;7218;51.480;7.006;2022-10-26T12:20:19;4.25;;;1.70;;
14268;SDS011;7218;51.480;7.006;2022-10-26T12:23:14;4.88;;;1.80;;
14268;SDS011;7218;51.480;7.006;2022-10-26T12:25:41;3.22;;;1.80;;
14268;SDS011;7218;51.480;7.006;2022-10-26T12:28:36;4.78;;;1.60;;
14268;SDS011;7218;51.480;7.006;2022-10-26T12:34:12;5.43;;;1.52;;
14268;SDS011;7218;51.480;7.006;2022-10-26T12:36:46;2.33;;;1.50;;
14268;SDS011;7218;51.480;7.006;2022-10-26T12:39:26;5.57;;;1.85;;
14268;SDS011;7218;51.480;7.006;2022-10-26T12:41:55;1.88;;;1.30;;
14268;SDS011;7218;51.480;7.006;2022-10-26T12:44:31;4.03;;;1.60;;
14268;SDS011;7218;51.480;7.006;2022-10-26T12:46:59;4.30;;;1.60;;
14268;SDS011;7218;51.480;7.006;2022-10-26T12:52:29;3.08;;;1.75;;
14268;SDS011;7218;51.480;7.006;2022-10-26T12:55:06;4.43;;;1.85;;
14268;SDS011;7218;51.480;7.006;2022-10-26T12:57:45;3.75;;;1.60;;
14268;SDS011;7218;51.480;7.006;2022-10-26T13:00:23;4.97;;;1.55;;
14268;SDS011;7218;51.480;7.006;2022-10-26T13:02:55;3.10;;;1.40;;
14268;SDS011;7218;51.480;7.006;2022-10-26T13:05:39;3.72;;;1.50;;
14268;SDS011;7218;51.480;7.006;2022-10-26T13:08:23;4.07;;;1.70;;
14268;SDS011;7218;51.480;7.006;2022-10-26T13:10:59;4.03;;;1.52;;
14268;SDS011;7218;51.480;7.006;2022-10-26T13:13:28;2.40;;;1.40;;
14268;SDS011;7218;51.480;7.006;2022-10-26T13:15:58;5.72;;;1.70;;
14268;SDS011;7218;51.480;7.006;2022-10-26T13:18:28;5.65;;;1.70;;
14268;SDS011;7218;51.480;7.006;2022-10-26T13:21:12;3.03;;;1.40;;
14268;SDS011;7218;51.480;7.006;2022-10-26T13:23:41;6.78;;;1.70;;
14268;SDS011;7218;51.480;7.006;2022-10-26T13:26:10;4.45;;;1.58;;
14268;SDS011;7218;51.480;7.006;2022-10-26T13:28:43;2.88;;;1.70;;
14268;SDS011;7218;51.480;7.006;2022-10-26T13:31:18;5.18;;;1.40;;
14268;SDS011;7218;51.480;7.006;2022-10-26T13:34:20;3.00;;;1.40;;
14268;SDS011;7218;51.480;7.006;2022-10-26T13:36:50;5.07;;;1.20;;
14268;SDS011;7218;51.480;7.006;2022-10-26T13:39:23;3.47;;;1.70;;
14268;SDS011;7218;51.480;7.006;2022-10-26T13:41:52;3.53;;;1.40;;
14268;SDS011;7218;51.480;7.006;2022-10-26T13:44:24;2.85;;;1.33;;
14268;SDS011;7218;51.480;7.006;2022-10-26T13:46:55;3.40;;;1.40;;
14268;SDS011;7218;51.480;7.006;2022-10-26T13:49:26;4.45;;;1.40;;
14268;SDS011;7218;51.480;7.006;2022-10-26T13:51:55;6.10;;;1.45;;
14268;SDS011;7218;51.480;7.006;2022-10-26T13:54:28;3.40;;;1.50;;
14268;SDS011;7218;51.480;7.006;2022-10-26T13:57:04;2.92;;;1.40;;
14268;SDS011;7218;51.480;7.006;2022-10-26T13:59:40;2.25;;;1.30;;
14268;SDS011;7218;51.480;7.006;2022-10-26T14:02:15;4.82;;;1.40;;
14268;SDS011;7218;51.480;7.006;2022-10-26T14:04:44;4.45;;;1.70;;
14268;SDS011;7218;51.480;7.006;2022-10-26T14:07:14;2.08;;;1.38;;
14268;SDS011;7218;51.480;7.006;2022-10-26T14:09:53;4.60;;;1.30;;
14268;SDS011;7218;51.480;7.006;2022-10-26T14:12:21;3.00;;;1.58;;
14268;SDS011;7218;51.480;7.006;2022-10-26T14:14:49;2.70;;;1.50;;
14268;SDS011;7218;51.480;7.006;2022-10-26T14:17:20;2.95;;;1.33;;
14268;SDS011;7218;51.480;7.006;2022-10-26T14:19:49;2.13;;;1.13;;
14268;SDS011;7218;51.480;7.006;2022-10-26T14:22:18;6.82;;;1.25;;
14268;SDS011;7218;51.480;7.006;2022-10-26T14:24:49;2.03;;;1.20;;
14268;SDS011;7218;51.480;7.006;2022-10-26T14:27:18;5.22;;;1.17;;
14268;SDS011;7218;51.480;7.006;2022-10-26T14:29:46;3.13;;;1.40;;
14268;SDS011;7218;51.480;7.006;2022-10-26T14:32:20;4.05;;;1.30;;
14268;SDS011;7218;51.480;7.006;2022-10-26T14:34:47;4.13;;;1.35;;
14268;SDS011;7218;51.480;7.006;2022-10-26T14:37:17;3.70;;;1.30;;
14268;SDS011;7218;51.480;7.006;2022-10-26T14:39:50;3.38;;;1.30;;
14268;SDS011;7218;51.480;7.006;2022-10-26T14:42:18;2.80;;;1.40;;
14268;SDS011;7218;51.480;7.006;2022-10-26T14:44:50;2.50;;;1.27;;
14268;SDS011;7218;51.480;7.006;2022-10-26T14:47:19;5.53;;;1.30;;
14268;SDS011;7218;51.480;7.006;2022-10-26T14:49:49;2.90;;;1.20;;
14268;SDS011;7218;51.480;7.006;2022-10-26T14:52:19;3.55;;;1.38;;
14268;SDS011;7218;51.480;7.006;2022-10-26T14:54:55;1.95;;;1.40;;
14268;SDS011;7218;51.480;7.006;2022-10-26T15:00:12;4.22;;;1.30;;
14268;SDS011;7218;51.480;7.006;2022-10-26T15:02:41;2.72;;;1.55;;
14268;SDS011;7218;51.480;7.006;2022-10-26T15:05:17;3.08;;;1.42;;
14268;SDS011;7218;51.480;7.006;2022-10-26T15:07:46;3.47;;;1.58;;
14268;SDS011;7218;51.480;7.006;2022-10-26T15:13:17;3.95;;;1.30;;
14268;SDS011;7218;51.480;7.006;2022-10-26T15:15:48;2.95;;;1.17;;
14268;SDS011;7218;51.480;7.006;2022-10-26T15:18:18;3.17;;;1.50;;
14268;SDS011;7218;51.480;7.006;2022-10-26T15:20:48;3.95;;;1.60;;
14268;SDS011;7218;51.480;7.006;2022-10-26T15:23:16;3.03;;;1.42;;
14268;SDS011;7218;51.480;7.006;2022-10-26T15:25:49;4.03;;;1.60;;
14268;SDS011;7218;51.480;7.006;2022-10-26T15:28:22;3.08;;;1.45;;
14268;SDS011;7218;51.480;7.006;2022-10-26T15:31:00;3.70;;;1.60;;
14268;SDS011;7218;51.480;7.006;2022-10-26T15:33:29;3.60;;;1.75;;
14268;SDS011;7218;51.480;7.006;2022-10-26T15:36:10;3.08;;;1.65;;
14268;SDS011;7218;51.480;7.006;2022-10-26T15:38:38;3.42;;;1.80;;
14268;SDS011;7218;51.480;7.006;2022-10-26T15:41:05;2.83;;;1.42;;
14268;SDS011;7218;51.480;7.006;2022-10-26T15:43:40;3.17;;;1.58;;
14268;SDS011;7218;51.480;7.006;2022-10-26T15:46:06;4.22;;;1.80;;